sensor_id;sensor_type;location;lat;lon;timestamp;temperature;humidity
8152;DHT22;4117;53.622;9.958;2023-04-19T00:02:07;6.00;1.00
8152;DHT22;4117;53.622;9.958;2023-04-19T00:04:34;6.00;1.00
8152;DHT22;4117;53.622;9.958;2023-04-19T00:07:02;5.90;1.00
8152;DHT22;4117;53.622;9.958;2023-04-19T00:09:29;5.90;1.00
8152;DHT22;4117;53.622;9.958;2023-04-19T00:11:56;5.90;1.00
8152;DHT22;4117;53.622;9.958;2023-04-19T00:14:23;5.80;1.00
8152;DHT22;4117;53.622;9.958;2023-04-19T00:16:52;5.70;1.00
8152;DHT22;4117;53.622;9.958;2023-04-19T00:19:18;5.80;1.00
8152;DHT22;4117;53.622;9.958;2023-04-19T00:21:46;5.80;1.00
8152;DHT22;4117;53.622;9.958;2023-04-19T00:24:14;5.70;1.00
8152;DHT22;4117;53.622;9.958;2023-04-19T00:26:41;5.70;1.00
8152;DHT22;4117;53.622;9.958;2023-04-19T00:29:08;5.70;1.00
8152;DHT22;4117;53.622;9.958;2023-04-19T00:31:35;5.70;1.00
8152;DHT22;4117;53.622;9.958;2023-04-19T00:34:05;5.60;1.00
8152;DHT22;4117;53.622;9.958;2023-04-19T00:36:32;5.60;1.00
8152;DHT22;4117;53.622;9.958;2023-04-19T00:38:59;5.60;1.00
8152;DHT22;4117;53.622;9.958;2023-04-19T00:41:26;5.60;1.00
8152;DHT22;4117;53.622;9.958;2023-04-19T00:43:53;5.60;1.00
8152;DHT22;4117;53.622;9.958;2023-04-19T00:46:20;5.50;1.00
8152;DHT22;4117;53.622;9.958;2023-04-19T00:48:48;5.50;1.00
8152;DHT22;4117;53.622;9.958;2023-04-19T00:51:17;5.50;1.00
8152;DHT22;4117;53.622;9.958;2023-04-19T00:53:44;5.50;1.00
8152;DHT22;4117;53.622;9.958;2023-04-19T00:56:13;5.50;1.00
8152;DHT22;4117;53.622;9.958;2023-04-19T00:58:40;5.50;1.00
8152;DHT22;4117;53.622;9.958;2023-04-19T01:01:07;5.40;1.00
8152;DHT22;4117;53.622;9.958;2023-04-19T01:03:35;5.50;1.00
8152;DHT22;4117;53.622;9.958;2023-04-19T01:06:02;5.40;1.00
8152;DHT22;4117;53.622;9.958;2023-04-19T01:08:30;5.40;1.00
8152;DHT22;4117;53.622;9.958;2023-04-19T01:10:57;5.40;1.00
8152;DHT22;4117;53.622;9.958;2023-04-19T01:13:24;5.40;1.00
8152;DHT22;4117;53.622;9.958;2023-04-19T01:15:53;5.40;1.00
8152;DHT22;4117;53.622;9.958;2023-04-19T01:18:21;5.40;1.00
8152;DHT22;4117;53.622;9.958;2023-04-19T01:20:50;5.40;1.00
8152;DHT22;4117;53.622;9.958;2023-04-19T01:23:18;5.40;1.00
8152;DHT22;4117;53.622;9.958;2023-04-19T01:25:45;5.50;1.00
8152;DHT22;4117;53.622;9.958;2023-04-19T01:28:12;5.40;1.00
8152;DHT22;4117;53.622;9.958;2023-04-19T01:30:40;5.40;1.00
8152;DHT22;4117;53.622;9.958;2023-04-19T01:33:07;5.40;1.00
8152;DHT22;4117;53.622;9.958;2023-04-19T01:35:34;5.40;1.00
8152;DHT22;4117;53.622;9.958;2023-04-19T01:38:01;5.40;1.00
8152;DHT22;4117;53.622;9.958;2023-04-19T01:40:29;5.30;1.00
8152;DHT22;4117;53.622;9.958;2023-04-19T01:42:56;5.30;1.00
8152;DHT22;4117;53.622;9.958;2023-04-19T01:45:23;5.40;1.00
8152;DHT22;4117;53.622;9.958;2023-04-19T01:47:51;5.40;1.00
8152;DHT22;4117;53.622;9.958;2023-04-19T01:50:18;5.40;1.00
8152;DHT22;4117;53.622;9.958;2023-04-19T01:52:45;5.30;1.00
8152;DHT22;4117;53.622;9.958;2023-04-19T01:55:12;5.40;1.00
8152;DHT22;4117;53.622;9.958;2023-04-19T01:57:40;5.40;1.00
8152;DHT22;4117;53.622;9.958;2023-04-19T02:00:11;5.40;1.00
8152;DHT22;4117;53.622;9.958;2023-04-19T02:02:38;5.30;1.00
8152;DHT22;4117;53.622;9.958;2023-04-19T13:44:00;12.10;1.00
8152;DHT22;4117;53.622;9.958;2023-04-19T13:46:27;12.20;1.00
8152;DHT22;4117;53.622;9.958;2023-04-19T13:48:54;12.20;1.00
8152;DHT22;4117;53.622;9.958;2023-04-19T13:51:21;12.20;1.00
8152;DHT22;4117;53.622;9.958;2023-04-19T13:53:47;12.20;1.00
8152;DHT22;4117;53.622;9.958;2023-04-19T13:56:15;12.20;1.00
8152;DHT22;4117;53.622;9.958;2023-04-19T13:58:41;12.30;1.00
8152;DHT22;4117;53.622;9.958;2023-04-19T14:01:10;12.40;1.00
8152;DHT22;4117;53.622;9.958;2023-04-19T14:03:37;12.30;1.00
8152;DHT22;4117;53.622;9.958;2023-04-19T14:06:04;12.20;1.00
8152;DHT22;4117;53.622;9.958;2023-04-19T14:08:31;12.30;1.00
8152;DHT22;4117;53.622;9.958;2023-04-19T14:10:58;12.20;1.00
8152;DHT22;4117;53.622;9.958;2023-04-19T14:13:26;12.30;1.00
8152;DHT22;4117;53.622;9.958;2023-04-19T14:15:53;12.50;1.00
8152;DHT22;4117;53.622;9.958;2023-04-19T14:18:21;12.30;1.00
8152;DHT22;4117;53.622;9.958;2023-04-19T14:20:48;12.30;1.00
8152;DHT22;4117;53.622;9.958;2023-04-19T14:23:15;12.40;1.00
8152;DHT22;4117;53.622;9.958;2023-04-19T14:25:42;12.60;1.00
8152;DHT22;4117;53.622;9.958;2023-04-19T14:28:09;12.70;1.00
8152;DHT22;4117;53.622;9.958;2023-04-19T14:30:37;12.70;1.00
8152;DHT22;4117;53.622;9.958;2023-04-19T14:33:04;12.60;1.00
8152;DHT22;4117;53.622;9.958;2023-04-19T14:35:32;12.70;1.00
8152;DHT22;4117;53.622;9.958;2023-04-19T14:37:59;12.80;1.00
8152;DHT22;4117;53.622;9.958;2023-04-19T14:40:26;12.70;1.00
8152;DHT22;4117;53.622;9.958;2023-04-19T14:42:53;12.80;1.00
8152;DHT22;4117;53.622;9.958;2023-04-19T14:45:20;12.80;1.00
8152;DHT22;4117;53.622;9.958;2023-04-19T14:47:47;12.90;1.00
8152;DHT22;4117;53.622;9.958;2023-04-19T14:50:14;13.00;1.00
8152;DHT22;4117;53.622;9.958;2023-04-19T14:52:42;12.80;1.00
8152;DHT22;4117;53.622;9.958;2023-04-19T14:55:10;12.70;1.00
8152;DHT22;4117;53.622;9.958;2023-04-19T14:57:37;12.80;1.00
8152;DHT22;4117;53.622;9.958;2023-04-19T15:00:05;12.90;1.00
8152;DHT22;4117;53.622;9.958;2023-04-19T15:02:32;12.90;1.00
8152;DHT22;4117;53.622;9.958;2023-04-19T15:04:59;13.00;1.00
8152;DHT22;4117;53.622;9.958;2023-04-19T15:07:26;13.20;1.00
8152;DHT22;4117;53.622;9.958;2023-04-19T15:09:54;13.20;1.00
8152;DHT22;4117;53.622;9.958;2023-04-19T15:12:21;13.30;1.00
8152;DHT22;4117;53.622;9.958;2023-04-19T15:14:48;13.10;1.00
8152;DHT22;4117;53.622;9.958;2023-04-19T15:17:15;13.00;1.00
8152;DHT22;4117;53.622;9.958;2023-04-19T15:19:42;12.90;1.00
8152;DHT22;4117;53.622;9.958;2023-04-19T15:22:11;13.30;1.00
8152;DHT22;4117;53.622;9.958;2023-04-19T15:24:38;13.30;1.00
8152;DHT22;4117;53.622;9.958;2023-04-19T15:27:07;13.30;1.00
8152;DHT22;4117;53.622;9.958;2023-04-19T15:29:34;13.20;1.00
8152;DHT22;4117;53.622;9.958;2023-04-19T15:32:01;13.20;1.00
8152;DHT22;4117;53.622;9.958;2023-04-19T15:34:29;13.20;1.00
8152;DHT22;4117;53.622;9.958;2023-04-19T15:36:56;13.40;1.00
8152;DHT22;4117;53.622;9.958;2023-04-19T15:39:23;13.20;1.00
8152;DHT22;4117;53.622;9.958;2023-04-19T15:41:50;13.00;1.00
8152;DHT22;4117;53.622;9.958;2023-04-19T15:44:19;13.10;1.00
8152;DHT22;4117;53.622;9.958;2023-04-19T15:46:46;13.10;1.00
8152;DHT22;4117;53.622;9.958;2023-04-19T15:49:12;13.10;1.00
8152;DHT22;4117;53.622;9.958;2023-04-19T15:51:39;13.10;1.00
8152;DHT22;4117;53.622;9.958;2023-04-19T15:54:06;13.00;1.00
8152;DHT22;4117;53.622;9.958;2023-04-19T15:56:33;13.00;1.00
8152;DHT22;4117;53.622;9.958;2023-04-19T15:59:00;13.40;1.00
8152;DHT22;4117;53.622;9.958;2023-04-19T16:01:29;13.10;1.00
8152;DHT22;4117;53.622;9.958;2023-04-19T16:03:56;13.20;1.00
8152;DHT22;4117;53.622;9.958;2023-04-19T16:06:22;13.20;1.00
8152;DHT22;4117;53.622;9.958;2023-04-19T16:08:49;13.00;1.00
8152;DHT22;4117;53.622;9.958;2023-04-19T16:11:16;13.00;1.00
8152;DHT22;4117;53.622;9.958;2023-04-19T16:13:43;13.00;1.00
8152;DHT22;4117;53.622;9.958;2023-04-19T16:16:10;13.00;1.00
8152;DHT22;4117;53.622;9.958;2023-04-19T16:18:39;12.70;1.00
8152;DHT22;4117;53.622;9.958;2023-04-19T16:21:06;12.50;1.00
8152;DHT22;4117;53.622;9.958;2023-04-19T16:23:32;12.70;1.00
8152;DHT22;4117;53.622;9.958;2023-04-19T16:25:59;12.70;1.00
8152;DHT22;4117;53.622;9.958;2023-04-19T16:28:29;12.60;1.00
8152;DHT22;4117;53.622;9.958;2023-04-19T16:30:56;12.70;1.00
8152;DHT22;4117;53.622;9.958;2023-04-19T16:33:23;12.70;1.00
8152;DHT22;4117;53.622;9.958;2023-04-19T16:35:51;12.80;1.00
8152;DHT22;4117;53.622;9.958;2023-04-19T16:38:18;12.60;1.00
8152;DHT22;4117;53.622;9.958;2023-04-19T16:40:45;12.70;1.00
8152;DHT22;4117;53.622;9.958;2023-04-19T16:43:13;12.70;1.00
8152;DHT22;4117;53.622;9.958;2023-04-19T16:45:40;12.50;1.00
8152;DHT22;4117;53.622;9.958;2023-04-19T16:48:07;12.50;1.00
8152;DHT22;4117;53.622;9.958;2023-04-19T16:50:34;12.50;1.00
8152;DHT22;4117;53.622;9.958;2023-04-19T16:53:02;12.30;1.00
8152;DHT22;4117;53.622;9.958;2023-04-19T16:55:29;12.20;1.00
8152;DHT22;4117;53.622;9.958;2023-04-19T16:57:56;12.10;1.00
8152;DHT22;4117;53.622;9.958;2023-04-19T17:00:23;12.10;1.00
8152;DHT22;4117;53.622;9.958;2023-04-19T17:02:50;12.00;1.00
8152;DHT22;4117;53.622;9.958;2023-04-19T17:05:17;12.20;1.00
8152;DHT22;4117;53.622;9.958;2023-04-19T17:07:44;12.20;1.00
8152;DHT22;4117;53.622;9.958;2023-04-19T17:10:13;12.30;1.00
8152;DHT22;4117;53.622;9.958;2023-04-19T17:12:40;12.30;1.00
8152;DHT22;4117;53.622;9.958;2023-04-19T17:15:07;12.30;1.00
8152;DHT22;4117;53.622;9.958;2023-04-19T17:17:34;12.10;1.00
8152;DHT22;4117;53.622;9.958;2023-04-19T17:20:01;12.00;1.00
8152;DHT22;4117;53.622;9.958;2023-04-19T17:22:30;11.90;1.00
8152;DHT22;4117;53.622;9.958;2023-04-19T17:24:56;11.80;1.00
8152;DHT22;4117;53.622;9.958;2023-04-19T17:27:25;11.90;1.00
8152;DHT22;4117;53.622;9.958;2023-04-19T17:29:52;12.00;1.00
8152;DHT22;4117;53.622;9.958;2023-04-19T17:32:19;11.80;1.00
8152;DHT22;4117;53.622;9.958;2023-04-19T17:34:45;11.60;1.00
8152;DHT22;4117;53.622;9.958;2023-04-19T17:37:12;11.40;1.00
8152;DHT22;4117;53.622;9.958;2023-04-19T17:39:39;11.40;1.00
8152;DHT22;4117;53.622;9.958;2023-04-19T17:42:06;11.40;1.00
8152;DHT22;4117;53.622;9.958;2023-04-19T17:44:35;11.30;1.00
8152;DHT22;4117;53.622;9.958;2023-04-19T17:47:02;11.30;1.00
8152;DHT22;4117;53.622;9.958;2023-04-19T17:49:28;11.30;1.00
8152;DHT22;4117;53.622;9.958;2023-04-19T17:51:55;11.30;1.00
8152;DHT22;4117;53.622;9.958;2023-04-19T17:54:22;11.20;1.00
8152;DHT22;4117;53.622;9.958;2023-04-19T17:56:49;11.10;1.00
8152;DHT22;4117;53.622;9.958;2023-04-19T17:59:17;11.00;1.00
8152;DHT22;4117;53.622;9.958;2023-04-19T18:01:46;10.90;1.00
8152;DHT22;4117;53.622;9.958;2023-04-19T18:04:13;10.80;1.00
8152;DHT22;4117;53.622;9.958;2023-04-19T18:06:42;10.80;1.00
8152;DHT22;4117;53.622;9.958;2023-04-19T18:09:09;10.80;1.00
8152;DHT22;4117;53.622;9.958;2023-04-19T18:11:36;10.80;1.00
8152;DHT22;4117;53.622;9.958;2023-04-19T18:14:03;10.70;1.00
8152;DHT22;4117;53.622;9.958;2023-04-19T18:16:31;10.70;1.00
8152;DHT22;4117;53.622;9.958;2023-04-19T18:18:59;10.60;1.00
8152;DHT22;4117;53.622;9.958;2023-04-19T18:21:26;10.60;1.00
8152;DHT22;4117;53.622;9.958;2023-04-19T18:23:54;10.50;1.00
8152;DHT22;4117;53.622;9.958;2023-04-19T18:26:21;10.60;1.00
8152;DHT22;4117;53.622;9.958;2023-04-19T18:28:48;10.50;1.00
8152;DHT22;4117;53.622;9.958;2023-04-19T18:31:15;10.40;1.00
8152;DHT22;4117;53.622;9.958;2023-04-19T18:33:42;10.40;1.00
8152;DHT22;4117;53.622;9.958;2023-04-19T18:36:10;10.30;1.00
8152;DHT22;4117;53.622;9.958;2023-04-19T18:38:37;10.30;1.00
8152;DHT22;4117;53.622;9.958;2023-04-19T18:41:04;10.20;1.00
8152;DHT22;4117;53.622;9.958;2023-04-19T18:43:31;10.10;1.00
8152;DHT22;4117;53.622;9.958;2023-04-19T18:45:58;10.10;1.00
8152;DHT22;4117;53.622;9.958;2023-04-19T18:48:25;10.00;1.00
8152;DHT22;4117;53.622;9.958;2023-04-19T18:50:54;10.10;1.00
8152;DHT22;4117;53.622;9.958;2023-04-19T18:53:24;10.00;1.00
8152;DHT22;4117;53.622;9.958;2023-04-19T18:55:54;10.10;1.00
8152;DHT22;4117;53.622;9.958;2023-04-19T18:58:22;9.90;1.00
8152;DHT22;4117;53.622;9.958;2023-04-19T19:00:49;9.80;1.00
8152;DHT22;4117;53.622;9.958;2023-04-19T19:03:16;9.80;1.00
8152;DHT22;4117;53.622;9.958;2023-04-19T19:05:43;9.70;1.00
8152;DHT22;4117;53.622;9.958;2023-04-19T19:08:10;9.70;1.00
8152;DHT22;4117;53.622;9.958;2023-04-19T19:10:38;9.60;1.00
8152;DHT22;4117;53.622;9.958;2023-04-19T19:13:05;9.50;1.00
8152;DHT22;4117;53.622;9.958;2023-04-19T19:15:32;9.50;1.00
8152;DHT22;4117;53.622;9.958;2023-04-19T19:18:01;9.50;1.00
8152;DHT22;4117;53.622;9.958;2023-04-19T19:20:28;9.40;1.00
8152;DHT22;4117;53.622;9.958;2023-04-19T19:22:55;9.40;1.00
8152;DHT22;4117;53.622;9.958;2023-04-19T19:25:22;9.40;1.00
8152;DHT22;4117;53.622;9.958;2023-04-19T19:27:50;9.30;1.00
8152;DHT22;4117;53.622;9.958;2023-04-19T19:30:20;9.20;1.00
8152;DHT22;4117;53.622;9.958;2023-04-19T19:32:47;9.20;1.00
8152;DHT22;4117;53.622;9.958;2023-04-19T19:35:14;9.20;1.00
8152;DHT22;4117;53.622;9.958;2023-04-19T19:37:41;9.30;1.00
8152;DHT22;4117;53.622;9.958;2023-04-19T19:40:08;9.20;1.00
8152;DHT22;4117;53.622;9.958;2023-04-19T19:42:36;9.20;1.00
8152;DHT22;4117;53.622;9.958;2023-04-19T19:45:06;9.20;1.00
8152;DHT22;4117;53.622;9.958;2023-04-19T19:47:33;9.10;1.00
8152;DHT22;4117;53.622;9.958;2023-04-19T19:50:03;9.00;1.00
8152;DHT22;4117;53.622;9.958;2023-04-19T19:52:31;9.00;1.00
8152;DHT22;4117;53.622;9.958;2023-04-19T19:54:59;8.90;1.00
8152;DHT22;4117;53.622;9.958;2023-04-19T19:57:26;8.90;1.00
8152;DHT22;4117;53.622;9.958;2023-04-19T19:59:53;8.90;1.00
8152;DHT22;4117;53.622;9.958;2023-04-19T20:02:22;8.80;1.00
8152;DHT22;4117;53.622;9.958;2023-04-19T20:04:49;8.80;1.00
8152;DHT22;4117;53.622;9.958;2023-04-19T20:07:15;8.80;1.00
8152;DHT22;4117;53.622;9.958;2023-04-19T20:09:43;8.70;1.00
8152;DHT22;4117;53.622;9.958;2023-04-19T20:12:10;8.70;1.00
8152;DHT22;4117;53.622;9.958;2023-04-19T20:14:38;8.70;1.00
8152;DHT22;4117;53.622;9.958;2023-04-19T20:17:05;8.70;1.00
8152;DHT22;4117;53.622;9.958;2023-04-19T20:19:33;8.70;1.00
8152;DHT22;4117;53.622;9.958;2023-04-19T20:22:02;8.70;1.00
8152;DHT22;4117;53.622;9.958;2023-04-19T20:24:29;8.70;1.00
8152;DHT22;4117;53.622;9.958;2023-04-19T20:26:56;8.60;1.00
8152;DHT22;4117;53.622;9.958;2023-04-19T20:29:23;8.70;1.00
8152;DHT22;4117;53.622;9.958;2023-04-19T20:31:50;8.70;1.00
8152;DHT22;4117;53.622;9.958;2023-04-19T20:34:17;8.70;1.00
8152;DHT22;4117;53.622;9.958;2023-04-19T20:36:45;8.70;1.00
8152;DHT22;4117;53.622;9.958;2023-04-19T20:39:12;8.70;1.00
8152;DHT22;4117;53.622;9.958;2023-04-19T20:41:39;8.70;1.00
8152;DHT22;4117;53.622;9.958;2023-04-19T20:44:06;8.70;1.00
8152;DHT22;4117;53.622;9.958;2023-04-19T20:46:33;8.70;1.00
8152;DHT22;4117;53.622;9.958;2023-04-19T20:49:03;8.70;1.00
8152;DHT22;4117;53.622;9.958;2023-04-19T20:51:30;8.80;1.00
8152;DHT22;4117;53.622;9.958;2023-04-19T20:53:59;8.80;1.00
8152;DHT22;4117;53.622;9.958;2023-04-19T20:56:26;8.80;1.00
8152;DHT22;4117;53.622;9.958;2023-04-19T20:58:53;8.80;1.00
8152;DHT22;4117;53.622;9.958;2023-04-19T21:01:21;8.80;1.00
8152;DHT22;4117;53.622;9.958;2023-04-19T21:03:48;8.80;1.00
8152;DHT22;4117;53.622;9.958;2023-04-19T21:06:15;8.80;1.00
8152;DHT22;4117;53.622;9.958;2023-04-19T21:08:42;8.80;1.00
8152;DHT22;4117;53.622;9.958;2023-04-19T21:11:11;8.80;1.00
8152;DHT22;4117;53.622;9.958;2023-04-19T21:13:37;8.80;1.00
8152;DHT22;4117;53.622;9.958;2023-04-19T21:16:05;8.80;1.00
8152;DHT22;4117;53.622;9.958;2023-04-19T21:18:32;8.80;1.00
8152;DHT22;4117;53.622;9.958;2023-04-19T21:20:59;8.90;1.00
8152;DHT22;4117;53.622;9.958;2023-04-19T21:23:26;8.90;1.00
8152;DHT22;4117;53.622;9.958;2023-04-19T21:25:53;8.90;1.00
8152;DHT22;4117;53.622;9.958;2023-04-19T21:28:21;8.90;1.00
8152;DHT22;4117;53.622;9.958;2023-04-19T21:30:49;8.90;1.00
8152;DHT22;4117;53.622;9.958;2023-04-19T21:33:17;8.90;1.00
8152;DHT22;4117;53.622;9.958;2023-04-19T21:35:44;8.90;1.00
8152;DHT22;4117;53.622;9.958;2023-04-19T21:38:11;8.90;1.00
8152;DHT22;4117;53.622;9.958;2023-04-19T21:40:38;8.90;1.00
8152;DHT22;4117;53.622;9.958;2023-04-19T21:43:05;9.00;1.00
8152;DHT22;4117;53.622;9.958;2023-04-19T21:45:33;9.00;1.00
8152;DHT22;4117;53.622;9.958;2023-04-19T21:48:00;9.00;1.00
8152;DHT22;4117;53.622;9.958;2023-04-19T21:50:27;9.00;1.00
8152;DHT22;4117;53.622;9.958;2023-04-19T21:52:54;9.00;1.00
8152;DHT22;4117;53.622;9.958;2023-04-19T21:55:21;9.00;1.00
8152;DHT22;4117;53.622;9.958;2023-04-19T21:57:48;9.00;1.00
8152;DHT22;4117;53.622;9.958;2023-04-19T22:00:16;9.10;1.00
8152;DHT22;4117;53.622;9.958;2023-04-19T22:02:44;9.10;1.00
8152;DHT22;4117;53.622;9.958;2023-04-19T22:05:11;9.10;1.00
8152;DHT22;4117;53.622;9.958;2023-04-19T22:07:38;9.20;1.00
8152;DHT22;4117;53.622;9.958;2023-04-19T22:10:07;9.20;1.00
8152;DHT22;4117;53.622;9.958;2023-04-19T22:12:34;9.20;1.00
8152;DHT22;4117;53.622;9.958;2023-04-19T22:15:01;9.20;1.00
8152;DHT22;4117;53.622;9.958;2023-04-19T22:17:28;9.20;1.00
8152;DHT22;4117;53.622;9.958;2023-04-19T22:19:58;9.30;1.00
8152;DHT22;4117;53.622;9.958;2023-04-19T22:22:25;9.30;1.00
8152;DHT22;4117;53.622;9.958;2023-04-19T22:24:52;9.30;1.00
8152;DHT22;4117;53.622;9.958;2023-04-19T22:27:18;9.30;1.00
8152;DHT22;4117;53.622;9.958;2023-04-19T22:29:45;9.10;1.00
8152;DHT22;4117;53.622;9.958;2023-04-19T22:32:12;9.10;1.00
8152;DHT22;4117;53.622;9.958;2023-04-19T22:34:39;9.10;1.00
8152;DHT22;4117;53.622;9.958;2023-04-19T22:37:08;9.10;1.00
8152;DHT22;4117;53.622;9.958;2023-04-19T22:39:35;9.10;1.00
8152;DHT22;4117;53.622;9.958;2023-04-19T22:42:02;9.10;1.00
8152;DHT22;4117;53.622;9.958;2023-04-19T22:44:29;9.10;1.00
8152;DHT22;4117;53.622;9.958;2023-04-19T22:46:55;9.20;1.00
8152;DHT22;4117;53.622;9.958;2023-04-19T22:49:22;9.20;1.00
8152;DHT22;4117;53.622;9.958;2023-04-19T22:51:49;9.20;1.00
8152;DHT22;4117;53.622;9.958;2023-04-19T22:54:20;9.20;1.00
8152;DHT22;4117;53.622;9.958;2023-04-19T22:56:47;9.20;1.00
8152;DHT22;4117;53.622;9.958;2023-04-19T22:59:14;9.20;1.00
8152;DHT22;4117;53.622;9.958;2023-04-19T23:01:41;9.20;1.00
8152;DHT22;4117;53.622;9.958;2023-04-19T23:04:12;9.20;1.00
8152;DHT22;4117;53.622;9.958;2023-04-19T23:06:41;9.20;1.00
8152;DHT22;4117;53.622;9.958;2023-04-19T23:09:09;9.20;1.00
8152;DHT22;4117;53.622;9.958;2023-04-19T23:11:39;9.20;1.00
8152;DHT22;4117;53.622;9.958;2023-04-19T23:14:07;9.20;1.00
8152;DHT22;4117;53.622;9.958;2023-04-19T23:16:35;9.20;1.00
8152;DHT22;4117;53.622;9.958;2023-04-19T23:19:03;9.20;1.00
8152;DHT22;4117;53.622;9.958;2023-04-19T23:21:30;9.20;1.00
8152;DHT22;4117;53.622;9.958;2023-04-19T23:23:57;9.20;1.00
8152;DHT22;4117;53.622;9.958;2023-04-19T23:26:24;9.10;1.00
8152;DHT22;4117;53.622;9.958;2023-04-19T23:28:52;9.10;1.00
8152;DHT22;4117;53.622;9.958;2023-04-19T23:31:19;9.10;1.00
8152;DHT22;4117;53.622;9.958;2023-04-19T23:33:47;9.10;1.00
8152;DHT22;4117;53.622;9.958;2023-04-19T23:36:14;9.10;1.00
8152;DHT22;4117;53.622;9.958;2023-04-19T23:38:40;9.00;1.00
8152;DHT22;4117;53.622;9.958;2023-04-19T23:41:09;9.00;1.00
8152;DHT22;4117;53.622;9.958;2023-04-19T23:43:36;8.90;1.00
8152;DHT22;4117;53.622;9.958;2023-04-19T23:46:05;9.00;1.00
8152;DHT22;4117;53.622;9.958;2023-04-19T23:48:32;8.90;1.00
8152;DHT22;4117;53.622;9.958;2023-04-19T23:50:59;8.90;1.00
8152;DHT22;4117;53.622;9.958;2023-04-19T23:53:25;8.90;1.00
8152;DHT22;4117;53.622;9.958;2023-04-19T23:55:52;8.90;1.00
8152;DHT22;4117;53.622;9.958;2023-04-19T23:58:19;8.80;1.00
